Time;durP1;ratioP1;P1;durP2;ratioP2;P2;SDS_P1;SDS_P2;PMS_P1;PMS_P2;Temp;Humidity;BMP_temperature;BMP_pressure;BME280_temperature;BME280_humidity;BME280_pressure;Samples;Min_cycle;Max_cycle;Signal;HPM_P1;HPM_P2
2021/12/14 00:00:22;;;;;;;62.33;36.65;;;;;;;1.46;100.00;101510.56;1745652;82;21457;-82
2021/12/14 00:02:51;;;;;;;60.65;36.95;;;;;;;1.43;100.00;101510.62;1745146;81;21018;-87
2021/12/14 00:05:21;;;;;;;65.15;36.73;;;;;;;1.39;100.00;101511.13;1749306;80;21053;-82
2021/12/14 00:07:50;;;;;;;67.08;40.38;;;;;;;1.40;100.00;101523.09;1749369;80;21007;-81
2021/12/14 00:13:12;;;;;;;70.70;40.45;;;;;;;1.40;100.00;101543.62;1664603;84;21128;-83
2021/12/14 00:15:32;;;;;;;64.53;37.03;;;;;;;1.50;100.00;101544.70;1747801;81;21037;-83
2021/12/14 00:18:05;;;;;;;49.00;32.75;;;;;;;1.54;100.00;101539.89;1718668;82;21050;-85
2021/12/14 00:20:38;;;;;;;61.00;35.08;;;;;;;1.58;100.00;101532.09;1713039;82;21007;-82
2021/12/14 00:25:51;;;;;;;51.15;35.50;;;;;;;1.55;100.00;101515.91;1768603;81;21940;-82
2021/12/14 00:28:28;;;;;;;57.17;35.83;;;;;;;1.50;100.00;101505.75;1717871;82;21010;-81
2021/12/14 00:30:59;;;;;;;64.87;38.28;;;;;;;1.46;100.00;101510.56;1749903;80;21011;-84
2021/12/14 00:33:33;;;;;;;75.45;42.75;;;;;;;1.46;100.00;101505.84;1718115;82;21085;-81
2021/12/14 00:36:02;;;;;;;67.92;40.33;;;;;;;1.44;100.00;101504.61;1752015;80;21089;-82
2021/12/14 00:38:33;;;;;;;73.62;39.75;;;;;;;1.41;100.00;101505.95;1718165;82;21579;-82
2021/12/14 00:41:08;;;;;;;74.97;40.35;;;;;;;1.39;100.00;101516.71;1749315;81;21025;-83
2021/12/14 00:43:36;;;;;;;68.95;37.67;;;;;;;1.38;100.00;101516.30;1719763;80;21050;-82
2021/12/14 00:46:05;;;;;;;59.30;37.80;;;;;;;1.37;100.00;101507.74;1718130;82;21756;-83
2021/12/14 00:48:33;;;;;;;64.72;36.70;;;;;;;1.38;100.00;101511.17;1718100;82;21101;-82
2021/12/14 00:51:04;;;;;;;56.83;35.00;;;;;;;1.38;100.00;101504.75;1718242;82;21536;-83
2021/12/14 00:53:32;;;;;;;61.60;34.58;;;;;;;1.35;100.00;101494.13;1749495;81;21036;-83
2021/12/14 00:56:04;;;;;;;50.95;30.30;;;;;;;1.35;100.00;101485.14;1717932;82;21141;-82
2021/12/14 00:58:36;;;;;;;51.18;30.08;;;;;;;1.36;100.00;101477.81;1718068;82;21039;-82
2021/12/14 01:01:15;;;;;;;53.87;30.25;;;;;;;1.39;100.00;101480.78;1718161;82;21069;-83
2021/12/14 01:03:47;;;;;;;50.12;28.25;;;;;;;1.45;100.00;101474.64;1745722;80;21291;-87
2021/12/14 01:06:17;;;;;;;54.08;27.02;;;;;;;1.45;100.00;101481.05;1700838;82;21567;-82
2021/12/14 01:08:48;;;;;;;38.78;24.50;;;;;;;1.46;100.00;101478.47;1749769;80;21089;-83
2021/12/14 01:11:22;;;;;;;45.90;22.58;;;;;;;1.47;100.00;101467.75;1717910;82;21606;-82
2021/12/14 01:13:59;;;;;;;39.80;23.75;;;;;;;1.47;100.00;101471.18;1714704;82;21068;-84
2021/12/14 01:19:18;;;;;;;43.83;21.95;;;;;;;1.61;100.00;101473.86;1750896;80;21073;-81
2021/12/14 01:22:14;;;;;;;30.15;20.55;;;;;;;1.64;100.00;101475.91;1657970;85;21062;-82
2021/12/14 01:24:53;;;;;;;38.00;21.07;;;;;;;1.68;100.00;101475.39;1744583;80;21053;-82
2021/12/14 01:27:09;;;;;;;35.58;20.15;;;;;;;1.67;100.00;101471.99;1717293;82;21112;-82
2021/12/14 01:29:39;;;;;;;30.15;20.75;;;;;;;1.68;100.00;101474.94;1749245;80;21851;-87
2021/12/14 01:32:10;;;;;;;31.45;19.35;;;;;;;1.74;100.00;101479.09;1718326;82;20987;-82
2021/12/14 01:34:39;;;;;;;33.53;20.50;;;;;;;1.78;100.00;101478.15;1717543;82;21523;-82
2021/12/14 01:37:17;;;;;;;41.50;22.48;;;;;;;1.82;100.00;101475.89;1749204;80;21046;-85
2021/12/14 01:40:02;;;;;;;35.58;20.43;;;;;;;1.87;100.00;101492.05;1746667;80;21101;-83
2021/12/14 01:42:35;;;;;;;31.12;21.15;;;;;;;1.91;100.00;101488.10;1749021;80;21355;-82
2021/12/14 01:45:16;;;;;;;38.00;22.07;;;;;;;1.95;100.00;101485.42;1718152;82;21014;-84
2021/12/14 01:47:52;;;;;;;35.35;21.25;;;;;;;1.99;100.00;101485.77;1747637;80;21022;-82
2021/12/14 01:50:43;;;;;;;36.23;21.70;;;;;;;1.98;100.00;101484.50;1700717;82;21089;-83
2021/12/14 01:53:30;;;;;;;31.60;22.02;;;;;;;2.01;100.00;101482.69;1719261;81;20959;-84
2021/12/14 01:56:02;;;;;;;29.40;19.42;;;;;;;2.05;100.00;101484.73;1768165;80;21093;-83
2021/12/14 01:58:38;;;;;;;34.03;22.70;;;;;;;2.04;100.00;101483.91;1715334;82;21006;-82
2021/12/14 02:01:14;;;;;;;30.52;21.70;;;;;;;2.06;100.00;101480.00;1745106;80;21436;-82
2021/12/14 02:03:58;;;;;;;43.63;22.93;;;;;;;2.09;100.00;101482.94;1716401;82;21528;-82
2021/12/14 02:06:31;;;;;;;31.35;21.30;;;;;;;2.13;100.00;101490.98;1717472;82;21528;-83
2021/12/14 02:09:07;;;;;;;35.78;21.30;;;;;;;2.17;100.00;101484.44;1749422;80;21161;-81
2021/12/14 02:11:39;;;;;;;29.15;20.37;;;;;;;2.16;100.00;101487.89;1716885;82;20983;-84
2021/12/14 02:14:07;;;;;;;32.13;21.40;;;;;;;2.16;100.00;101492.20;1744664;80;21029;-82
2021/12/14 02:16:37;;;;;;;39.18;22.82;;;;;;;2.12;100.00;101497.86;1718618;82;21472;-82
2021/12/14 02:19:10;;;;;;;33.70;21.27;;;;;;;2.08;100.00;101495.41;1749699;80;21057;-82
2021/12/14 02:21:38;;;;;;;39.58;23.57;;;;;;;2.05;100.00;101497.16;1718455;82;21869;-81
2021/12/14 02:24:09;;;;;;;47.25;23.32;;;;;;;2.05;100.00;101483.03;1750571;80;21050;-83
2021/12/14 02:26:40;;;;;;;37.45;23.27;;;;;;;2.05;100.00;101482.17;1754574;81;21582;-82
2021/12/14 02:29:13;;;;;;;27.07;18.87;;;;;;;2.05;100.00;101484.73;1754200;81;37651;-82
2021/12/14 02:31:41;;;;;;;34.67;21.23;;;;;;;2.09;100.00;101478.66;1749036;81;21040;-82
2021/12/14 02:34:21;;;;;;;39.10;22.35;;;;;;;2.15;100.00;101467.38;1754482;80;21122;-82
2021/12/14 02:36:47;;;;;;;30.92;20.37;;;;;;;2.18;100.00;101464.71;1721684;81;21492;-85
2021/12/14 02:39:48;;;;;;;34.83;20.43;;;;;;;2.21;100.00;101460.33;1715417;82;21062;-83
2021/12/14 02:41:58;;;;;;;33.80;20.77;;;;;;;2.23;100.00;101458.17;1741659;82;21081;-82
2021/12/14 02:44:24;;;;;;;;;;;;;;;2.19;100.00;101459.55;1748533;82;21722;-82
2021/12/14 02:47:00;;;;;;;30.90;19.45;;;;;;;2.11;100.00;101460.20;1726852;80;21151;-82
2021/12/14 02:49:32;;;;;;;35.98;21.37;;;;;;;2.03;100.00;101460.37;1779855;79;21053;-81
2021/12/14 02:52:02;;;;;;;;;;;;;;;2.03;100.00;101460.37;1732986;80;21037;-83
2021/12/14 02:54:41;;;;;;;33.95;20.50;;;;;;;2.00;100.00;101458.33;1747911;80;20216;-83
2021/12/14 02:57:13;;;;;;;38.13;22.95;;;;;;;1.94;100.00;101462.35;1704624;82;21638;-82
2021/12/14 02:59:43;;;;;;;39.05;23.87;;;;;;;1.92;100.00;101465.39;1751814;80;21817;-81
2021/12/14 03:02:16;;;;;;;38.13;24.55;;;;;;;1.91;100.00;101460.70;1752494;80;21085;-83
2021/12/14 03:04:48;;;;;;;38.05;24.40;;;;;;;1.89;100.00;101464.58;1751679;80;21536;-81
2021/12/14 03:07:21;;;;;;;36.48;23.73;;;;;;;1.85;100.00;101472.39;1748346;80;21053;-87
2021/12/14 03:09:57;;;;;;;48.42;25.30;;;;;;;1.84;100.00;101479.27;1777566;80;21500;-81
2021/12/14 03:12:37;;;;;;;44.85;23.62;;;;;;;1.90;100.00;101482.13;1775354;79;21139;-82
2021/12/14 03:15:21;;;;;;;37.63;23.92;;;;;;;1.93;100.00;101485.89;1744652;80;21034;-83
2021/12/14 03:17:54;;;;;;;44.38;25.80;;;;;;;2.02;100.00;101487.41;1780663;79;21081;-82
2021/12/14 03:20:26;;;;;;;43.70;25.95;;;;;;;2.07;100.00;101485.55;1775356;79;21033;-82
2021/12/14 03:23:07;;;;;;;47.58;27.67;;;;;;;2.08;100.00;101485.95;1751986;80;21046;-82
2021/12/14 11:45:54;;;;;;;38.63;27.27;;;;;;;1.52;100.00;101501.43;1847917;77;21983;-90
2021/12/14 11:48:36;;;;;;;44.63;27.90;;;;;;;1.63;100.00;101502.91;1789586;78;20981;-87
2021/12/14 11:51:07;;;;;;;43.52;28.42;;;;;;;1.63;100.00;101502.91;1790779;78;21171;-87
2021/12/14 11:53:35;;;;;;;44.42;26.07;;;;;;;1.64;100.00;101509.28;1776461;78;22048;-88
2021/12/14 11:56:13;;;;;;;40.70;25.75;;;;;;;1.63;100.00;101505.02;1821028;78;21053;-89
2021/12/14 11:58:50;;;;;;;39.98;24.80;;;;;;;1.58;100.00;101501.28;1775572;78;21041;-90
2021/12/14 12:01:47;;;;;;;40.12;25.50;;;;;;;1.64;100.00;101504.16;1776189;78;21099;-89
2021/12/14 12:04:32;;;;;;;55.30;28.80;;;;;;;1.69;100.00;101510.47;1753357;79;21682;-88
2021/12/14 12:09:35;;;;;;;48.58;29.02;;;;;;;1.62;100.00;101498.66;1773150;78;21160;-87
2021/12/14 12:12:20;;;;;;;54.63;31.25;;;;;;;1.58;100.00;101497.88;1788634;78;21076;-88
2021/12/14 12:15:19;;;;;;;58.08;31.60;;;;;;;1.55;100.00;101504.36;1754169;78;21080;-88
2021/12/14 12:17:53;;;;;;;53.23;30.70;;;;;;;1.58;100.00;101506.41;1788616;78;21085;-88
2021/12/14 12:20:47;;;;;;;57.53;32.42;;;;;;;1.57;100.00;101506.45;1792475;78;21021;-88
2021/12/14 12:23:24;;;;;;;51.13;30.27;;;;;;;1.53;100.00;101506.11;1808224;78;21080;-88
2021/12/14 12:26:01;;;;;;;49.95;31.20;;;;;;;1.53;100.00;101512.11;1811691;78;21355;-88
2021/12/14 12:28:43;;;;;;;52.25;29.87;;;;;;;1.54;100.00;101512.52;1826472;78;21321;-89
2021/12/14 12:31:19;;;;;;;49.90;29.90;;;;;;;1.51;100.00;101516.42;1817453;78;21125;-87
2021/12/14 12:33:54;;;;;;;56.70;31.50;;;;;;;1.48;100.00;101513.94;1797231;78;21068;-87
2021/12/14 12:36:28;;;;;;;55.75;32.13;;;;;;;1.47;100.00;101530.64;1813789;78;21175;-87
2021/12/14 12:39:07;;;;;;;53.42;30.65;;;;;;;1.43;100.00;101533.72;1767572;79;21052;-88
2021/12/14 12:41:57;;;;;;;55.67;30.85;;;;;;;1.41;100.00;101539.31;1800904;78;21040;-89
2021/12/14 12:44:39;;;;;;;60.80;33.10;;;;;;;1.38;100.00;101556.09;1773986;78;21081;-89
2021/12/14 12:47:14;;;;;;;63.80;33.42;;;;;;;1.40;100.00;101546.64;1794367;78;21041;-89
2021/12/14 12:49:56;;;;;;;61.98;32.67;;;;;;;1.40;100.00;101545.36;1775469;78;21116;-87
2021/12/14 12:52:36;;;;;;;62.93;33.50;;;;;;;1.39;100.00;101549.63;1776636;78;21049;-90
2021/12/14 12:55:28;;;;;;;52.25;31.12;;;;;;;1.40;100.00;101533.80;1760571;78;20978;-88
2021/12/14 12:58:14;;;;;;;56.77;29.72;;;;;;;1.40;100.00;101533.80;1795295;78;21121;-88
2021/12/14 13:00:47;;;;;;;;;;;;;;;1.40;100.00;101531.23;1797384;78;21554;-90
2021/12/14 13:03:24;;;;;;;64.60;31.42;;;;;;;1.40;100.00;101524.37;1763027;78;20235;-89
2021/12/14 13:06:19;;;;;;;58.98;29.40;;;;;;;1.37;100.00;101527.45;1807032;78;21082;-89
2021/12/14 13:08:51;;;;;;;57.40;28.98;;;;;;;1.35;100.00;101538.17;1783419;80;21025;-88
2021/12/14 13:11:49;;;;;;;54.83;31.68;;;;;;;1.35;100.00;101542.89;1809560;78;21127;-88
2021/12/14 13:14:16;;;;;;;69.22;33.05;;;;;;;1.47;100.00;101550.75;1799296;78;21073;-89
2021/12/14 13:16:51;;;;;;;51.85;31.75;;;;;;;1.55;100.00;101548.86;1776316;79;21053;-89
2021/12/14 13:19:26;;;;;;;51.73;29.30;;;;;;;1.61;100.00;101548.31;1799263;78;21653;-91
2021/12/14 13:22:04;;;;;;;74.85;43.23;;;;;;;1.62;100.00;101555.97;1780091;78;21514;-88
2021/12/14 13:24:41;;;;;;;63.38;35.88;;;;;;;1.71;100.00;101556.22;1792421;78;21985;-89
2021/12/14 13:27:24;;;;;;;60.60;35.78;;;;;;;1.79;100.00;101553.03;1790722;78;21014;-88
2021/12/14 13:30:05;;;;;;;52.98;31.90;;;;;;;1.83;100.00;101559.77;1812700;78;21064;-88
2021/12/14 13:32:38;;;;;;;54.63;32.67;;;;;;;1.86;100.00;101554.58;1785146;78;21009;-88
2021/12/14 13:35:35;;;;;;;;;;;;;;;1.84;100.00;101550.36;1815157;78;21036;-89
2021/12/14 13:38:07;;;;;;;51.48;31.85;;;;;;;1.73;100.00;101547.59;1799205;78;21074;-89
2021/12/14 13:40:40;;;;;;;49.15;29.70;;;;;;;1.62;100.00;101546.16;1792431;78;20994;-89
2021/12/14 13:55:49;;;;;;;43.80;30.65;;;;;;;1.94;100.00;101544.55;1816402;77;22079;-87
2021/12/14 13:58:23;;;;;;;42.95;27.52;;;;;;;1.97;100.00;101555.59;1795570;79;21465;-88
2021/12/14 14:00:59;;;;;;;45.55;31.05;;;;;;;2.07;100.00;101542.08;1795567;79;21824;-87
2021/12/14 14:03:34;;;;;;;45.15;29.65;;;;;;;2.07;100.00;101542.08;1745367;80;20954;-87
2021/12/14 14:06:07;;;;;;;59.85;36.33;;;;;;;2.13;100.00;101542.37;1749896;79;21119;-89
2021/12/14 14:08:43;;;;;;;49.98;30.43;;;;;;;2.14;100.00;101538.47;1764024;80;21118;-90
2021/12/14 14:11:30;;;;;;;51.50;31.87;;;;;;;2.03;100.00;101538.74;1772233;79;21506;-89
2021/12/14 14:14:03;;;;;;;56.13;33.70;;;;;;;1.91;100.00;101546.77;1765825;80;21143;-88
2021/12/14 14:16:51;;;;;;;63.73;37.75;;;;;;;1.84;100.00;101535.78;1760766;79;20979;-89
2021/12/14 14:19:36;;;;;;;64.67;36.50;;;;;;;1.80;100.00;101543.59;1765397;79;21080;-89
2021/12/14 14:22:14;;;;;;;67.30;36.90;;;;;;;1.72;100.00;101538.65;1773392;80;21517;-89
2021/12/14 14:24:46;;;;;;;75.30;38.40;;;;;;;1.70;100.00;101535.27;1784696;80;21593;-87
2021/12/14 14:27:45;;;;;;;64.85;35.90;;;;;;;1.66;100.00;101534.50;1771090;79;21329;-87
2021/12/14 14:30:42;;;;;;;70.62;39.05;;;;;;;1.64;100.00;101526.43;1741361;81;21121;-89
2021/12/14 14:33:23;;;;;;;78.75;39.25;;;;;;;1.69;100.00;101526.70;1740415;80;21021;-87
2021/12/14 14:36:06;;;;;;;83.70;40.35;;;;;;;1.69;100.00;101531.00;1733939;81;21600;-89
2021/12/14 14:38:45;;;;;;;81.72;39.20;;;;;;;1.69;100.00;101530.55;1773979;79;21013;-89
2021/12/14 14:41:21;;;;;;;101.80;46.75;;;;;;;1.73;100.00;101526.19;1748438;80;21157;-88
2021/12/14 14:44:05;;;;;;;111.47;49.20;;;;;;;1.77;100.00;101530.81;1780297;80;21143;-89
2021/12/14 14:46:50;;;;;;;104.58;47.25;;;;;;;1.72;100.00;101530.49;1783187;79;21124;-88
2021/12/14 14:49:41;;;;;;;108.10;47.85;;;;;;;1.70;100.00;101523.71;1737432;80;22546;-89
2021/12/14 14:52:31;;;;;;;102.53;46.48;;;;;;;1.68;100.00;101518.59;1768096;80;21058;-90
2021/12/14 14:55:45;;;;;;;119.55;50.80;;;;;;;1.69;100.00;101522.02;1781288;80;21672;-89
2021/12/14 14:58:20;;;;;;;118.15;48.98;;;;;;;1.70;100.00;101514.72;1776568;78;21621;-89
2021/12/14 15:00:59;;;;;;;106.25;45.35;;;;;;;1.63;100.00;101519.15;1744770;80;21115;-88
2021/12/14 15:03:46;;;;;;;115.37;47.48;;;;;;;1.56;100.00;101513.30;1750584;80;21101;-89
2021/12/14 15:06:30;;;;;;;117.00;45.73;;;;;;;1.48;100.00;101504.96;1753457;79;21838;-89
2021/12/14 15:09:09;;;;;;;107.32;45.85;;;;;;;1.45;100.00;101501.17;1781258;80;21219;-90
2021/12/14 15:11:51;;;;;;;98.67;44.20;;;;;;;1.45;100.00;101508.87;1732453;80;21622;-89
2021/12/14 15:14:32;;;;;;;110.57;48.78;;;;;;;1.34;100.00;101506.55;1767093;80;21999;-91
2021/12/14 15:17:22;;;;;;;90.35;42.15;;;;;;;1.29;100.00;101510.09;1783301;79;21147;-91
2021/12/14 15:19:53;;;;;;;88.25;40.58;;;;;;;1.29;100.00;101507.52;1701518;82;21884;-89
2021/12/14 15:22:34;;;;;;;85.70;42.50;;;;;;;1.28;100.00;101507.11;1746180;80;21077;-89
2021/12/14 15:25:11;;;;;;;81.40;39.92;;;;;;;1.31;100.00;101513.47;1695972;81;21119;-89
2021/12/14 15:27:58;;;;;;;86.10;43.98;;;;;;;1.34;100.00;101523.65;1768892;80;21079;-87
2021/12/14 15:30:56;;;;;;;83.17;39.38;;;;;;;1.28;100.00;101514.81;1728460;80;21088;-89
2021/12/14 15:33:38;;;;;;;81.60;40.45;;;;;;;1.24;100.00;101520.00;1691892;82;21070;-89
2021/12/14 15:36:23;;;;;;;75.75;38.88;;;;;;;1.30;100.00;101515.17;1719488;81;21168;-89
2021/12/14 15:39:07;;;;;;;86.00;41.25;;;;;;;1.30;100.00;101526.72;1742888;80;21088;-88
2021/12/14 15:41:41;;;;;;;70.47;35.33;;;;;;;1.43;100.00;101533.72;1739637;80;21073;-89
2021/12/14 15:44:21;;;;;;;65.47;35.75;;;;;;;1.52;100.00;101530.95;1701377;82;21113;-88
2021/12/14 15:46:56;;;;;;;75.97;39.27;;;;;;;1.60;100.00;101533.36;1705446;81;21504;-90
2021/12/14 15:49:31;;;;;;;71.92;38.42;;;;;;;1.58;100.00;101529.97;1782635;78;21062;-89
2021/12/14 15:52:14;;;;;;;85.00;40.40;;;;;;;1.52;100.00;101536.09;1794636;79;21006;-91
2021/12/14 15:54:49;;;;;;;78.47;38.85;;;;;;;1.44;100.00;101535.41;1781089;79;21034;-90
2021/12/14 15:57:20;;;;;;;81.08;40.65;;;;;;;1.43;100.00;101519.59;1723955;80;21105;-90
2021/12/14 15:59:57;;;;;;;91.72;44.93;;;;;;;1.38;100.00;101529.14;1763723;80;21100;-90
2021/12/14 16:02:39;;;;;;;93.37;46.83;;;;;;;1.34;100.00;101527.50;1773587;80;21248;-88
2021/12/14 16:05:15;;;;;;;84.60;43.45;;;;;;;1.29;100.00;101492.95;1750608;80;21482;-87
2021/12/14 16:07:45;;;;;;;84.70;44.70;;;;;;;1.26;100.00;101511.83;1760217;80;21021;-90
2021/12/14 16:10:28;;;;;;;73.90;37.93;;;;;;;1.22;100.00;101500.39;1756245;80;21094;-89
2021/12/14 16:15:40;;;;;;;75.78;39.67;;;;;;;1.20;100.00;101513.26;1766285;80;21204;-89
2021/12/14 16:18:11;;;;;;;65.50;37.28;;;;;;;1.23;100.00;101513.20;1749345;79;20998;-90
2021/12/14 16:20:48;;;;;;;63.05;34.03;;;;;;;1.28;100.00;101512.24;1775835;79;21625;-89
2021/12/14 16:23:26;;;;;;;58.17;31.50;;;;;;;1.31;100.00;101513.47;1744111;80;21100;-89
2021/12/14 16:26:11;;;;;;;54.27;30.72;;;;;;;1.29;100.00;101512.20;1754291;80;21019;-90
2021/12/14 16:28:47;;;;;;;62.33;32.05;;;;;;;1.37;100.00;101510.31;1760743;80;21915;-90
2021/12/14 16:31:26;;;;;;;63.85;31.80;;;;;;;1.47;100.00;101511.39;1755882;80;21012;-90
2021/12/14 16:34:02;;;;;;;59.98;32.10;;;;;;;1.50;100.00;101504.46;1729100;80;21048;-89
2021/12/14 16:36:34;;;;;;;66.90;33.38;;;;;;;1.51;100.00;101513.02;1761995;80;21562;-89
2021/12/14 16:39:09;;;;;;;60.92;33.48;;;;;;;1.49;100.00;101513.49;1770438;80;21073;-88
2021/12/14 16:41:45;;;;;;;64.72;34.20;;;;;;;1.48;100.00;101505.38;1767039;80;21148;-88
2021/12/14 16:44:20;;;;;;;71.42;38.25;;;;;;;1.43;100.00;101509.34;1760490;80;21042;-89
2021/12/14 16:46:56;;;;;;;62.95;34.78;;;;;;;1.34;100.00;101516.81;1770728;80;21019;-88
2021/12/14 16:49:29;;;;;;;65.55;33.63;;;;;;;1.39;100.00;101515.43;1765087;80;21107;-88
2021/12/14 16:52:05;;;;;;;63.85;34.25;;;;;;;1.45;100.00;101508.00;1775541;79;21080;-88
2021/12/14 16:54:33;;;;;;;67.20;34.67;;;;;;;1.43;100.00;101524.73;1780787;80;21153;-89
2021/12/14 16:57:10;;;;;;;55.88;32.20;;;;;;;1.36;100.00;101516.77;1786703;80;21038;-87
2021/12/14 16:59:46;;;;;;;64.80;30.50;;;;;;;1.34;100.00;101511.68;1747984;80;21593;-91
2021/12/14 17:02:21;;;;;;;54.67;29.82;;;;;;;1.31;100.00;101511.73;1775894;80;21563;-82
2021/12/14 17:04:53;;;;;;;56.42;30.77;;;;;;;1.24;100.00;101498.19;1769151;78;21037;-82
2021/12/14 17:07:31;;;;;;;61.13;32.10;;;;;;;1.10;100.00;101496.36;1771118;78;21049;-83
2021/12/14 17:10:00;;;;;;;48.33;27.60;;;;;;;0.99;100.00;101503.00;1795567;78;20946;-83
2021/12/14 17:12:28;;;;;;;59.40;30.85;;;;;;;0.90;100.00;101507.90;1776477;78;21044;-85
2021/12/14 17:15:04;;;;;;;56.05;30.52;;;;;;;0.97;100.00;101515.02;1794310;78;21017;-82
2021/12/14 17:17:32;;;;;;;58.40;30.88;;;;;;;1.03;100.00;101514.05;1789247;79;21016;-83
2021/12/14 17:20:27;;;;;;;71.72;29.82;;;;;;;1.01;100.00;101508.95;1731507;80;21126;-84
2021/12/14 17:22:54;;;;;;;60.95;31.05;;;;;;;1.05;100.00;101511.02;1763027;80;21131;-86
2021/12/14 17:25:25;;;;;;;60.90;30.97;;;;;;;1.04;100.00;101522.16;1783472;78;21049;-82
2021/12/14 17:27:52;;;;;;;63.95;29.07;;;;;;;1.00;100.00;101526.95;1770305;78;21076;-84
2021/12/14 17:30:24;;;;;;;60.90;29.72;;;;;;;0.96;100.00;101531.30;1786709;78;21105;-86
2021/12/14 17:32:53;;;;;;;57.55;29.27;;;;;;;0.95;100.00;101530.89;1769826;78;21152;-84
2021/12/14 17:35:25;;;;;;;61.00;29.92;;;;;;;0.92;100.00;101534.34;1782732;78;21678;-84
2021/12/14 17:38:00;;;;;;;63.05;32.23;;;;;;;0.90;100.00;101525.85;1772195;80;21037;-83
2021/12/14 17:40:34;;;;;;;59.27;30.00;;;;;;;0.87;100.00;101532.31;1758864;78;21010;-83
2021/12/14 17:43:07;;;;;;;51.48;28.77;;;;;;;0.81;100.00;101527.31;1751368;80;21057;-83
2021/12/14 17:45:41;;;;;;;69.58;33.05;;;;;;;0.77;100.00;101530.38;1775072;79;21231;-84
2021/12/14 17:48:11;;;;;;;62.85;32.33;;;;;;;0.75;100.00;101526.16;1788593;78;21541;-85
2021/12/14 17:50:48;;;;;;;64.05;31.45;;;;;;;0.72;100.00;101526.20;1761907;80;21424;-87
2021/12/14 17:53:20;;;;;;;78.70;34.67;;;;;;;0.68;100.00;101527.98;1791909;78;21080;-84
2021/12/14 17:55:55;;;;;;;61.92;32.10;;;;;;;0.65;100.00;101523.36;1782120;80;21035;-83
2021/12/14 17:58:30;;;;;;;64.77;31.75;;;;;;;0.63;100.00;101532.37;1751609;80;21922;-84
2021/12/14 18:01:11;;;;;;;81.45;37.33;;;;;;;0.62;100.00;101537.08;1778675;80;21542;-84
2021/12/14 18:03:51;;;;;;;75.72;38.40;;;;;;;0.62;100.00;101532.78;1762574;79;21147;-86
2021/12/14 18:06:25;;;;;;;73.87;35.88;;;;;;;0.60;100.00;101531.13;1786362;79;21565;-85
2021/12/14 18:08:58;;;;;;;62.70;31.45;;;;;;;0.60;100.00;101538.37;1751591;80;21582;-87
2021/12/14 18:11:37;;;;;;;60.85;32.00;;;;;;;0.62;100.00;101527.66;1713809;82;21054;-85
2021/12/14 18:14:31;;;;;;;;;;;;;;;;;;;;;
2021/12/14 18:16:55;;;;;;;70.28;33.42;;;;;;;0.64;100.00;101530.22;1750248;81;21056;-85
2021/12/14 18:19:27;;;;;;;65.12;32.38;;;;;;;0.65;100.00;101525.92;1787863;78;21446;-85
2021/12/14 18:22:01;;;;;;;71.20;33.23;;;;;;;0.63;100.00;101525.50;1775542;79;21069;-84
2021/12/14 18:24:41;;;;;;;71.70;32.67;;;;;;;0.60;100.00;101525.55;1744863;80;21163;-84
2021/12/14 18:27:13;;;;;;;69.32;31.80;;;;;;;0.58;100.00;101537.58;1752814;80;21618;-83
2021/12/14 18:29:46;;;;;;;62.58;28.77;;;;;;;0.58;100.00;101535.43;1772246;80;21056;-84
2021/12/14 18:32:18;;;;;;;67.37;30.90;;;;;;;0.57;100.00;101535.88;1765566;79;20978;-85
2021/12/14 18:34:48;;;;;;;66.40;31.02;;;;;;;0.58;100.00;101539.28;1788419;79;21510;-87
2021/12/14 18:37:20;;;;;;;60.78;29.70;;;;;;;0.56;100.00;101535.47;1731798;80;21040;-84
2021/12/14 18:39:53;;;;;;;61.08;28.52;;;;;;;0.57;100.00;101531.17;1744998;80;21096;-84
2021/12/14 18:42:29;;;;;;;66.92;29.72;;;;;;;0.56;100.00;101534.64;1724034;82;21093;-87
2021/12/14 18:45:13;;;;;;;66.87;29.57;;;;;;;0.54;100.00;101542.78;1771798;79;21080;-86
2021/12/14 18:50:39;;;;;;;69.37;30.88;;;;;;;0.49;100.00;101539.44;1782245;79;21118;-84
2021/12/14 18:53:23;;;;;;;63.80;30.40;;;;;;;0.45;100.00;101537.38;1749512;80;21498;-83
2021/12/14 18:56:04;;;;;;;58.40;27.80;;;;;;;0.40;100.00;101534.05;1771906;79;21036;-85
2021/12/14 18:58:39;;;;;;;66.87;28.50;;;;;;;0.37;100.00;101540.51;1692928;84;21071;-85
2021/12/14 19:01:22;;;;;;;62.05;27.93;;;;;;;0.35;100.00;101538.43;1665213;83;21100;-85
2021/12/14 19:04:08;;;;;;;55.90;26.52;;;;;;;0.32;100.00;101543.18;1694914;83;21876;-87
2021/12/14 19:06:49;;;;;;;62.67;28.47;;;;;;;0.33;100.00;101537.16;1673601;84;21011;-86
2021/12/14 19:09:31;;;;;;;64.50;29.07;;;;;;;0.32;100.00;101538.05;1710072;83;21814;-85
2021/12/14 19:12:05;;;;;;;64.58;29.57;;;;;;;0.32;100.00;101549.58;1693558;83;21022;-86
2021/12/14 19:14:33;;;;;;;60.05;27.35;;;;;;;0.35;100.00;101548.68;1722119;82;21606;-86
2021/12/14 19:17:05;;;;;;;60.90;29.10;;;;;;;0.39;100.00;101546.45;1725160;83;21167;-85
2021/12/14 19:19:36;;;;;;;57.90;26.70;;;;;;;0.39;100.00;101535.79;1694384;83;21069;-84
2021/12/14 19:22:24;;;;;;;63.48;30.43;;;;;;;0.40;100.00;101539.19;1724748;81;21496;-84
2021/12/14 19:25:02;;;;;;;58.68;29.32;;;;;;;0.40;100.00;101538.73;1687275;84;21067;-88
2021/12/14 19:27:38;;;;;;;62.43;28.10;;;;;;;0.40;100.00;101535.34;1715409;81;21129;-84
2021/12/14 19:30:14;;;;;;;61.42;29.57;;;;;;;0.39;100.00;101529.80;1683094;83;21096;-82
2021/12/14 19:32:49;;;;;;;61.83;28.32;;;;;;;0.41;100.00;101537.03;1687158;83;21030;-83
2021/12/14 19:35:22;;;;;;;58.25;28.90;;;;;;;0.40;100.00;101528.94;1671378;84;21034;-83
2021/12/14 19:37:58;;;;;;;61.90;29.05;;;;;;;0.42;100.00;101519.51;1713903;83;21050;-83
2021/12/14 19:40:34;;;;;;;64.85;30.40;;;;;;;0.44;100.00;101519.05;1660774;84;21137;-84
2021/12/14 19:43:07;;;;;;;58.85;28.77;;;;;;;0.43;100.00;101516.08;1672000;83;21466;-87
2021/12/14 19:45:36;;;;;;;63.75;30.08;;;;;;;0.42;100.00;101523.35;1688876;84;21068;-84
2021/12/14 19:48:26;;;;;;;66.35;30.60;;;;;;;0.42;100.00;101525.91;1689731;84;21041;-82
2021/12/14 19:51:04;;;;;;;61.35;28.73;;;;;;;0.41;100.00;101520.38;1683377;84;21057;-84
2021/12/14 19:53:38;;;;;;;66.82;30.72;;;;;;;0.39;100.00;101516.98;1672348;84;21015;-86
2021/12/14 19:56:14;;;;;;;63.63;28.85;;;;;;;0.37;100.00;101509.34;1711973;81;21033;-85
2021/12/14 19:58:43;;;;;;;71.50;30.00;;;;;;;0.36;100.00;101514.50;1714918;83;21712;-84
2021/12/14 20:01:20;;;;;;;64.75;27.82;;;;;;;0.34;100.00;101518.80;1720601;82;28319;-83
2021/12/14 20:03:51;;;;;;;82.12;33.15;;;;;;;0.31;100.00;101517.14;1702779;82;21070;-84
2021/12/14 20:06:25;;;;;;;76.30;32.35;;;;;;;0.30;100.00;101521.41;1721767;82;21005;-85
2021/12/14 20:09:08;;;;;;;74.12;32.78;;;;;;;0.28;100.00;101530.83;1715000;82;21939;-85
2021/12/14 20:11:45;;;;;;;65.62;29.12;;;;;;;0.29;100.00;101536.36;1688193;84;21054;-83
2021/12/14 20:14:19;;;;;;;73.30;29.90;;;;;;;0.31;100.00;101542.31;1716864;82;21135;-85
2021/12/14 20:16:54;;;;;;;72.35;29.23;;;;;;;0.31;100.00;101546.16;1735250;81;21029;-84
2021/12/14 20:19:33;;;;;;;57.60;28.10;;;;;;;0.29;100.00;101548.34;1718643;82;21054;-84
2021/12/14 20:22:06;;;;;;;73.52;29.95;;;;;;;0.29;100.00;101551.73;1714208;83;21190;-85
2021/12/14 20:24:42;;;;;;;75.32;32.60;;;;;;;0.31;100.00;101545.33;1713574;82;21132;-83
2021/12/14 20:27:24;;;;;;;68.85;30.05;;;;;;;0.28;100.00;101552.61;1687157;83;21559;-85
2021/12/14 20:29:57;;;;;;;75.75;32.45;;;;;;;0.27;100.00;101558.63;1714397;82;21042;-84
2021/12/14 20:32:34;;;;;;;77.78;32.53;;;;;;;0.25;100.00;101555.23;1717845;82;21108;-86
2021/12/14 20:35:22;;;;;;;74.70;30.50;;;;;;;0.25;100.00;101553.09;1720395;82;21160;-83
2021/12/14 20:37:56;;;;;;;78.33;32.93;;;;;;;0.24;100.00;101553.99;1687960;83;21070;-82
2021/12/14 20:40:32;;;;;;;87.75;35.20;;;;;;;0.22;100.00;101544.20;1709995;82;21002;-84
2021/12/14 20:43:07;;;;;;;79.12;34.08;;;;;;;0.21;100.00;101554.03;1700298;83;21062;-86